Time;durP1;ratioP1;P1;durP2;ratioP2;P2;SDS_P1;SDS_P2;PMS_P1;PMS_P2;Temp;Humidity;BMP_temperature;BMP_pressure;BME280_temperature;BME280_humidity;BME280_pressure;Samples;Min_cycle;Max_cycle;Signal;HPM_P1;HPM_P2
2023/03/02 00:02:07;;;;;;;6.15;0.82;;;;;;;6.47;75.79;102308.59;5049247;28;20106;-45
2023/03/02 00:04:45;;;;;;;3.47;0.93;;;;;;;6.46;75.65;102295.94;5049969;28;20049;-46
2023/03/02 00:07:17;;;;;;;6.60;0.75;;;;;;;6.47;75.78;102300.34;5031773;28;20099;-46
2023/03/02 00:09:44;;;;;;;10.88;2.22;;;;;;;6.48;75.71;102295.69;5049672;28;20044;-47
2023/03/02 00:12:12;;;;;;;3.28;0.88;;;;;;;6.49;75.90;102300.88;5049469;28;20059;-49
2023/03/02 00:14:39;;;;;;;4.25;0.50;;;;;;;6.45;75.83;102298.97;5049422;28;20534;-46
2023/03/02 00:17:06;;;;;;;4.28;0.70;;;;;;;6.44;75.68;102300.91;5041652;28;20037;-45
2023/03/02 00:19:33;;;;;;;4.40;1.10;;;;;;;6.43;75.84;102290.19;5050468;28;20048;-45
2023/03/02 00:22:00;;;;;;;5.40;1.55;;;;;;;6.42;75.79;102294.88;5060085;28;20056;-45
2023/03/02 00:24:26;;;;;;;3.08;1.55;;;;;;;6.42;75.78;102294.03;5047069;28;20049;-45
2023/03/02 00:26:53;;;;;;;4.30;1.77;;;;;;;6.42;75.60;102294.88;5044425;28;20115;-45
2023/03/02 00:29:20;;;;;;;8.63;1.15;;;;;;;6.42;75.77;102275.59;5049027;28;20052;-45
2023/03/02 00:31:46;;;;;;;3.50;0.77;;;;;;;6.43;75.66;102292.94;5045880;28;20053;-46
2023/03/02 00:34:13;;;;;;;3.28;1.35;;;;;;;6.42;75.88;102272.84;5042983;28;20051;-51
2023/03/02 00:36:40;;;;;;;5.15;0.73;;;;;;;6.42;75.87;102270.09;5046233;28;20446;-45
2023/03/02 00:39:07;;;;;;;3.67;0.80;;;;;;;6.44;76.15;102267.88;5029737;28;20049;-45
2023/03/02 00:41:34;;;;;;;7.00;1.52;;;;;;;6.47;76.04;102275.59;5045247;28;20056;-45
2023/03/02 00:44:00;;;;;;;5.75;0.80;;;;;;;6.48;75.93;102269.00;5048672;28;20095;-45
2023/03/02 00:46:27;;;;;;;4.30;1.17;;;;;;;6.49;76.18;102270.63;5048513;28;20084;-46
2023/03/02 00:48:54;;;;;;;3.88;1.05;;;;;;;6.51;76.03;102275.84;5048704;28;20049;-50
2023/03/02 00:51:21;;;;;;;5.95;1.38;;;;;;;6.52;76.30;102277.47;5048960;28;20391;-45
2023/03/02 00:53:47;;;;;;;4.75;0.95;;;;;;;6.52;76.24;102269.22;5047393;28;20068;-47
2023/03/02 00:56:14;;;;;;;6.35;0.88;;;;;;;6.54;76.43;102267.03;5030845;28;20045;-45
2023/03/02 00:58:41;;;;;;;6.47;1.20;;;;;;;6.53;76.61;102263.47;5048640;28;20051;-47
2023/03/02 01:01:10;;;;;;;4.07;1.00;;;;;;;6.53;76.56;102249.72;5048892;28;20049;-47
2023/03/02 01:03:37;;;;;;;3.83;0.95;;;;;;;6.53;76.45;102260.72;5048594;28;20037;-48
2023/03/02 01:06:05;;;;;;;8.95;1.70;;;;;;;6.52;76.69;102256.31;5048547;28;20056;-46
2023/03/02 01:08:32;;;;;;;1.98;0.70;;;;;;;6.52;76.91;102252.72;5048991;28;20053;-47
2023/03/02 01:11:00;;;;;;;3.40;0.82;;;;;;;6.52;76.77;102259.06;5047182;28;20048;-45
2023/03/02 01:13:28;;;;;;;3.00;0.88;;;;;;;6.52;77.01;102261.81;5024251;28;20052;-45
2023/03/02 01:16:01;;;;;;;3.33;0.93;;;;;;;6.50;77.11;102264.03;5044980;28;20144;-45
2023/03/02 01:18:28;;;;;;;5.78;1.00;;;;;;;6.50;77.03;102260.44;5044350;28;20041;-46
2023/03/02 01:21:02;;;;;;;8.63;0.80;;;;;;;6.50;77.05;102260.44;5043228;28;20102;-46
2023/03/02 01:23:29;;;;;;;5.72;1.23;;;;;;;6.51;77.09;102257.41;5044235;28;20037;-46
2023/03/02 01:25:56;;;;;;;7.00;1.15;;;;;;;6.52;77.30;102256.31;5047023;28;20056;-45
2023/03/02 01:28:23;;;;;;;2.85;0.90;;;;;;;6.50;77.23;102247.50;5047045;28;20498;-46
2023/03/02 01:30:50;;;;;;;9.05;1.10;;;;;;;6.51;77.44;102251.88;5044099;28;20499;-45
2023/03/02 01:33:16;;;;;;;7.85;1.27;;;;;;;6.50;77.53;102242.00;5052112;28;20072;-45
2023/03/02 01:35:45;;;;;;;4.40;0.95;;;;;;;6.50;77.75;102239.25;5048273;28;20045;-45
2023/03/02 01:38:12;;;;;;;5.43;1.10;;;;;;;6.51;77.84;102231.84;5030354;28;20043;-45
2023/03/02 01:40:39;;;;;;;4.13;1.15;;;;;;;6.50;78.09;102231.00;5046509;28;20051;-51
2023/03/02 01:43:12;;;;;;;10.23;0.82;;;;;;;6.50;78.14;102232.94;5042670;28;20065;-52
2023/03/02 01:45:44;;;;;;;5.35;0.77;;;;;;;6.48;78.08;102224.97;5059164;28;20036;-46
2023/03/02 01:48:14;;;;;;;4.57;1.23;;;;;;;6.46;78.16;102229.91;5051995;28;20087;-46
2023/03/02 01:50:41;;;;;;;7.72;0.93;;;;;;;6.46;78.37;102223.59;5052559;28;20133;-46
2023/03/02 01:53:08;;;;;;;5.18;1.85;;;;;;;6.45;78.59;102222.78;5034144;28;20045;-45
2023/03/02 01:55:37;;;;;;;5.82;0.90;;;;;;;6.48;78.34;102222.22;5052225;28;20491;-45
2023/03/02 01:58:05;;;;;;;7.43;1.05;;;;;;;6.47;78.67;102215.06;5052088;28;20509;-46
2023/03/02 02:00:36;;;;;;;5.07;0.60;;;;;;;6.47;78.89;102206.81;5051820;28;20099;-46
2023/03/02 02:03:15;;;;;;;1.67;0.77;;;;;;;6.46;78.97;102196.91;5053345;28;20053;-45
2023/03/02 02:05:45;;;;;;;6.53;1.50;;;;;;;6.46;79.07;102207.09;5040205;28;20086;-45
2023/03/02 02:08:12;;;;;;;8.30;2.08;;;;;;;6.46;79.32;102198.84;5052192;28;20099;-45
2023/03/02 02:10:39;;;;;;;7.47;1.48;;;;;;;6.46;79.64;102201.59;5034021;28;20254;-51
2023/03/02 02:13:10;;;;;;;5.13;0.93;;;;;;;6.45;79.54;102195.28;5049656;28;20049;-45
2023/03/02 02:15:39;;;;;;;4.43;1.07;;;;;;;6.45;79.87;102194.44;5046064;28;20152;-45
2023/03/02 02:18:06;;;;;;;8.13;1.33;;;;;;;6.46;79.89;102187.84;5049527;28;20045;-47
2023/03/02 02:20:36;;;;;;;6.72;0.90;;;;;;;6.44;80.03;102182.59;5059495;28;20052;-45
2023/03/02 02:23:21;;;;;;;9.68;1.60;;;;;;;6.46;79.90;102182.34;5046436;28;20037;-46
2023/03/02 02:25:57;;;;;;;7.90;1.92;;;;;;;6.46;80.02;102183.13;5032151;28;20048;-48
2023/03/02 02:28:36;;;;;;;5.20;1.23;;;;;;;6.47;80.38;102170.22;5041453;28;20045;-46
2023/03/02 02:31:11;;;;;;;8.35;0.98;;;;;;;6.49;80.23;102174.31;5040062;28;20137;-52
2023/03/02 02:33:42;;;;;;;3.40;1.02;;;;;;;6.48;80.40;102169.94;5042307;28;20047;-45
2023/03/02 02:36:19;;;;;;;6.38;0.98;;;;;;;6.50;80.28;102175.97;5034060;28;20049;-45
2023/03/02 02:38:49;;;;;;;8.82;2.35;;;;;;;6.52;80.33;102172.94;5040512;28;20056;-50
2023/03/02 02:41:26;;;;;;;5.82;1.10;;;;;;;6.52;80.46;102161.94;5044958;28;20037;-46
2023/03/02 02:43:54;;;;;;;7.80;1.48;;;;;;;6.50;80.63;102164.97;5045614;28;20071;-45
2023/03/02 02:46:20;;;;;;;8.75;1.60;;;;;;;6.50;80.61;102156.72;5051422;28;20068;-45
2023/03/02 02:48:47;;;;;;;3.03;0.73;;;;;;;6.50;80.65;102159.47;5050969;28;20572;-45
2023/03/02 02:51:20;;;;;;;6.70;0.75;;;;;;;6.50;80.33;102158.66;5051396;28;20115;-46
2023/03/02 02:53:57;;;;;;;3.15;0.93;;;;;;;6.47;80.73;102151.78;5051375;28;20060;-46
2023/03/02 02:56:31;;;;;;;3.55;1.27;;;;;;;6.45;80.67;102143.00;5051142;28;20487;-48
2023/03/02 02:59:04;;;;;;;3.33;0.80;;;;;;;6.44;80.78;102146.00;5051116;28;20053;-45
2023/03/02 03:01:33;;;;;;;8.98;1.48;;;;;;;6.42;80.77;102148.22;5135609;22;20155;-45
2023/03/02 03:04:02;;;;;;;1.83;0.60;;;;;;;6.39;80.95;102140.53;5058189;28;20106;-45
2023/03/02 03:06:37;;;;;;;5.07;1.30;;;;;;;6.39;81.11;102141.38;5070925;28;20615;-46
2023/03/02 03:09:09;;;;;;;3.55;0.50;;;;;;;6.39;81.07;102141.38;5052621;28;20056;-45
2023/03/02 03:11:42;;;;;;;4.53;1.35;;;;;;;6.41;81.13;102141.06;5070828;28;20401;-48
2023/03/02 03:14:15;;;;;;;2.72;0.63;;;;;;;6.41;81.19;102127.31;5068019;28;20044;-45
2023/03/02 03:16:44;;;;;;;6.85;1.63;;;;;;;6.42;81.20;102123.47;5066217;28;20041;-45
2023/03/02 03:19:28;;;;;;;2.92;0.60;;;;;;;6.43;81.52;102136.97;5068953;28;20072;-46
2023/03/02 03:21:58;;;;;;;2.42;0.65;;;;;;;6.40;81.24;102137.53;5060358;28;20045;-45
2023/03/02 03:24:27;;;;;;;3.67;0.75;;;;;;;6.38;81.52;102134.22;5066676;28;20099;-47
2023/03/02 03:26:54;;;;;;;4.63;0.57;;;;;;;6.33;81.91;102137.00;5069309;28;20051;-44
2023/03/02 03:29:23;;;;;;;1.30;0.35;;;;;;;6.27;81.96;102129.91;5069467;28;20047;-45
2023/03/02 03:31:51;;;;;;;6.28;0.50;;;;;;;6.16;81.84;102130.22;5058353;28;20403;-47
2023/03/02 03:34:18;;;;;;;2.30;0.40;;;;;;;6.08;82.30;102131.63;5065634;28;20049;-43
2023/03/02 03:36:46;;;;;;;5.72;0.40;;;;;;;6.01;82.65;102118.16;5049883;28;20044;-44
2023/03/02 03:39:14;;;;;;;6.35;0.70;;;;;;;5.96;82.74;102114.63;5063990;28;20072;-45
2023/03/02 03:41:42;;;;;;;1.75;0.30;;;;;;;5.94;82.76;102123.16;5066051;28;20083;-44
2023/03/02 03:44:10;;;;;;;4.57;0.20;;;;;;;5.89;82.95;102108.59;5064472;28;20040;-45
2023/03/02 03:46:36;;;;;;;2.90;0.30;;;;;;;5.85;82.89;102119.31;5060139;28;20115;-45
2023/03/02 03:49:03;;;;;;;0.35;0.28;;;;;;;5.80;83.04;102121.28;5051154;28;20052;-53
2023/03/02 03:51:33;;;;;;;3.80;0.40;;;;;;;5.76;83.25;102114.66;5051433;28;20444;-44
2023/03/02 03:54:06;;;;;;;1.42;0.50;;;;;;;5.75;83.13;102113.00;5065527;28;20094;-44
2023/03/02 03:56:37;;;;;;;2.47;0.40;;;;;;;5.75;83.23;102107.50;5064950;28;20041;-44
2023/03/02 03:59:06;;;;;;;0.85;0.40;;;;;;;5.73;83.41;102117.97;5054971;28;20140;-44
2023/03/02 04:01:38;;;;;;;3.83;0.47;;;;;;;5.64;83.79;102117.72;5064319;28;20044;-44
2023/03/02 04:04:07;;;;;;;1.20;0.50;;;;;;;5.58;83.91;102115.28;5065345;28;20052;-46
2023/03/02 04:06:34;;;;;;;6.93;0.50;;;;;;;5.52;83.66;102107.06;5067176;28;20071;-46
2023/03/02 04:09:03;;;;;;;1.88;0.30;;;;;;;5.50;84.25;102108.44;5066532;28;20067;-46
2023/03/02 04:11:36;;;;;;;1.17;0.30;;;;;;;5.49;84.08;102096.63;5064543;28;20102;-44
2023/03/02 04:14:03;;;;;;;3.15;1.05;;;;;;;5.49;84.17;102095.78;5069334;28;20032;-45
2023/03/02 04:16:30;;;;;;;1.88;0.50;;;;;;;5.47;84.38;102092.50;5065563;28;20091;-45
2023/03/02 04:18:59;;;;;;;2.38;0.40;;;;;;;5.46;84.63;102088.94;5071451;28;20052;-44
2023/03/02 04:21:26;;;;;;;1.27;0.45;;;;;;;5.48;84.54;102092.22;5066289;28;20506;-44
2023/03/02 04:23:53;;;;;;;3.50;0.60;;;;;;;5.50;84.84;102087.28;5064844;28;20101;-46
2023/03/02 04:26:20;;;;;;;2.58;0.50;;;;;;;5.53;84.69;102089.44;5063448;28;20032;-49
2023/03/02 04:28:49;;;;;;;7.25;0.52;;;;;;;5.55;84.74;102089.19;5061053;28;20056;-48
2023/03/02 04:31:16;;;;;;;3.30;0.40;;;;;;;5.56;85.10;102098.25;5065111;28;20048;-47
2023/03/02 04:33:43;;;;;;;8.43;2.65;;;;;;;5.56;84.98;102088.06;5068606;28;20060;-44
2023/03/02 04:36:10;;;;;;;3.55;0.52;;;;;;;5.57;85.11;102095.22;5067578;28;20113;-44
2023/03/02 04:38:37;;;;;;;2.40;0.70;;;;;;;5.58;85.47;102096.88;5068565;28;20448;-47
2023/03/02 04:41:04;;;;;;;3.20;0.50;;;;;;;5.57;85.36;102100.72;5065126;28;20048;-44
2023/03/02 04:43:31;;;;;;;6.40;0.60;;;;;;;5.56;85.56;102098.25;5055499;28;20101;-45
2023/03/02 04:45:58;;;;;;;3.03;0.45;;;;;;;5.52;85.33;102082.31;5067338;28;20054;-44
2023/03/02 04:48:28;;;;;;;0.38;0.20;;;;;;;5.48;85.36;102081.22;5069418;28;20040;-44
2023/03/02 04:50:54;;;;;;;1.80;0.57;;;;;;;5.46;85.38;102094.41;5065645;28;20070;-44
2023/03/02 04:53:21;;;;;;;1.65;0.20;;;;;;;5.44;85.30;102093.88;5069893;28;20469;-44
2023/03/02 04:55:48;;;;;;;0.43;0.20;;;;;;;5.43;85.15;102081.25;5069100;28;20040;-50
2023/03/02 04:58:14;;;;;;;1.98;0.38;;;;;;;5.40;84.99;102065.31;5068806;28;20412;-44
2023/03/02 05:00:41;;;;;;;1.77;0.70;;;;;;;5.39;85.06;102076.59;5056638;28;20390;-43
2023/03/02 05:03:08;;;;;;;1.13;0.68;;;;;;;5.38;84.92;102075.75;5068741;28;20045;-48
2023/03/02 05:05:35;;;;;;;0.57;0.20;;;;;;;5.36;84.80;102077.97;5068044;28;20040;-44
2023/03/02 05:08:01;;;;;;;2.55;0.60;;;;;;;5.37;84.83;102084.28;5068406;28;20044;-44
2023/03/02 05:10:28;;;;;;;2.97;0.70;;;;;;;5.37;84.54;102090.63;5068407;28;20033;-43
2023/03/02 05:13:01;;;;;;;0.93;0.20;;;;;;;5.39;84.61;102076.59;5068475;28;20052;-44
2023/03/02 05:15:32;;;;;;;1.38;0.32;;;;;;;5.37;84.59;102068.66;5058172;28;20041;-43
2023/03/02 05:17:59;;;;;;;1.15;0.30;;;;;;;5.37;84.39;102074.13;5067073;28;20055;-45
2023/03/02 05:20:28;;;;;;;0.70;0.35;;;;;;;5.37;84.39;102073.31;5065372;28;20052;-45
2023/03/02 05:22:58;;;;;;;3.05;0.68;;;;;;;5.36;84.45;102075.22;5065542;28;20049;-43
2023/03/02 05:25:26;;;;;;;1.00;0.38;;;;;;;5.39;84.35;102079.34;5067193;28;20405;-45
2023/03/02 05:27:52;;;;;;;3.72;0.43;;;;;;;5.38;84.35;102069.44;5071197;28;20043;-44
2023/03/02 05:30:20;;;;;;;4.57;0.60;;;;;;;5.40;84.47;102070.00;5059715;28;20440;-44
2023/03/02 05:32:48;;;;;;;5.72;2.13;;;;;;;5.41;84.40;102061.47;5065583;28;20052;-45
2023/03/02 05:35:15;;;;;;;4.72;0.57;;;;;;;5.46;84.58;102068.88;5067872;28;20040;-45
2023/03/02 05:37:43;;;;;;;5.30;0.82;;;;;;;5.46;84.80;102061.47;5066273;28;20456;-45
2023/03/02 05:40:17;;;;;;;1.92;0.50;;;;;;;5.49;84.99;102069.16;5064525;28;20048;-45
2023/03/02 05:42:44;;;;;;;2.05;1.13;;;;;;;5.51;84.91;102066.09;5067310;28;20055;-44
2023/03/02 05:45:27;;;;;;;1.38;0.32;;;;;;;5.52;85.23;102060.34;5056359;28;20382;-46
2023/03/02 05:47:55;;;;;;;4.15;0.65;;;;;;;5.52;85.13;102065.84;5059044;28;20563;-44
2023/03/02 05:50:22;;;;;;;1.38;0.98;;;;;;;5.54;85.28;102057.31;5062708;28;20036;-44
2023/03/02 05:52:49;;;;;;;3.88;0.93;;;;;;;5.56;85.31;102062.53;5065789;28;20047;-46
2023/03/02 05:55:17;;;;;;;2.97;0.52;;;;;;;5.57;85.36;102062.25;5064325;28;20127;-46
2023/03/02 05:57:44;;;;;;;4.25;0.70;;;;;;;5.56;85.56;102065.28;5063667;28;20051;-47
2023/03/02 06:00:12;;;;;;;3.50;0.80;;;;;;;5.55;85.40;102067.22;5062071;28;20044;-44
2023/03/02 06:02:40;;;;;;;0.75;0.52;;;;;;;5.51;85.34;102058.69;5058632;28;20076;-44
2023/03/02 06:05:09;;;;;;;4.55;1.15;;;;;;;5.50;85.47;102051.56;5066273;28;20366;-46
2023/03/02 06:07:36;;;;;;;3.22;0.77;;;;;;;5.48;85.68;102056.50;5067958;28;20169;-44
2023/03/02 06:10:05;;;;;;;7.47;0.93;;;;;;;5.45;85.67;102059.81;5059088;28;20041;-44
2023/03/02 06:12:32;;;;;;;5.70;1.10;;;;;;;5.44;85.86;102055.44;5062666;28;20095;-45
2023/03/02 06:14:59;;;;;;;3.42;0.45;;;;;;;5.44;85.84;102055.44;5065016;28;20079;-44
2023/03/02 06:17:26;;;;;;;5.03;0.70;;;;;;;5.42;85.82;102056.81;5068700;28;20056;-44
2023/03/02 06:19:52;;;;;;;4.65;2.67;;;;;;;5.39;85.90;102055.44;5068776;28;20049;-44
2023/03/02 06:22:19;;;;;;;7.05;1.65;;;;;;;5.39;85.87;102060.94;5049887;28;20044;-48
2023/03/02 06:24:45;;;;;;;2.80;0.70;;;;;;;5.39;86.04;102060.13;5042956;28;20300;-46
2023/03/02 06:27:13;;;;;;;8.30;0.60;;;;;;;5.37;86.18;102057.66;5062236;28;20056;-45
2023/03/02 06:29:40;;;;;;;4.03;0.70;;;;;;;5.35;86.10;102051.59;5066177;28;20068;-45
2023/03/02 06:32:07;;;;;;;3.88;0.43;;;;;;;5.34;86.15;102052.72;5070160;28;20044;-45
2023/03/02 06:34:33;;;;;;;4.32;0.60;;;;;;;5.32;86.35;102054.91;5065464;28;20119;-51
2023/03/02 06:37:01;;;;;;;1.50;0.68;;;;;;;5.29;86.07;102050.00;5069962;28;20037;-44
2023/03/02 06:39:28;;;;;;;1.63;0.50;;;;;;;5.28;85.97;102042.84;5047215;28;20052;-45
2023/03/02 06:41:59;;;;;;;3.17;0.73;;;;;;;5.26;86.11;102050.53;5065969;28;20059;-47
2023/03/02 06:44:25;;;;;;;2.47;0.43;;;;;;;5.25;85.91;102043.38;5069080;28;20044;-44
2023/03/02 06:46:52;;;;;;;1.48;0.43;;;;;;;5.23;85.93;102045.59;5063394;28;20481;-46
2023/03/02 06:49:19;;;;;;;5.20;0.50;;;;;;;5.21;86.16;102046.97;5066323;28;20048;-45
2023/03/02 06:51:45;;;;;;;3.25;0.75;;;;;;;5.20;86.01;102046.16;5068123;28;20048;-50
2023/03/02 06:54:12;;;;;;;0.45;0.13;;;;;;;5.18;86.32;102037.38;5067717;28;20044;-45
2023/03/02 06:56:39;;;;;;;3.55;0.52;;;;;;;5.18;86.12;102045.63;5068747;28;20133;-51
2023/03/02 06:59:07;;;;;;;1.85;0.52;;;;;;;5.21;86.08;102049.72;5067935;28;20741;-51
2023/03/02 07:01:34;;;;;;;5.28;0.88;;;;;;;5.23;86.36;102055.75;5065723;28;20060;-44
2023/03/02 07:04:02;;;;;;;4.25;0.95;;;;;;;5.27;86.24;102045.88;5064777;28;20090;-47
2023/03/02 07:06:29;;;;;;;2.90;0.82;;;;;;;5.31;86.30;102049.69;5065018;28;20047;-45
2023/03/02 07:08:55;;;;;;;4.15;0.50;;;;;;;5.34;86.23;102063.69;5067592;28;20110;-45
2023/03/02 07:11:22;;;;;;;7.30;1.08;;;;;;;5.38;86.22;102061.19;5066702;28;20517;-45
2023/03/02 07:13:50;;;;;;;3.88;0.50;;;;;;;5.40;86.38;102068.06;5063707;28;20045;-45
2023/03/02 07:16:16;;;;;;;9.40;2.45;;;;;;;5.43;86.31;102073.00;5065856;28;20046;-43
2023/03/02 07:18:43;;;;;;;6.95;0.80;;;;;;;5.46;86.54;102075.19;5069888;28;20064;-44
2023/03/02 07:21:10;;;;;;;3.47;0.55;;;;;;;5.49;86.59;102066.41;5065943;28;20171;-44
2023/03/02 07:23:37;;;;;;;4.40;1.20;;;;;;;5.50;86.45;102070.81;5069516;28;20048;-45
2023/03/02 07:26:07;;;;;;;2.75;0.52;;;;;;;5.49;86.48;102062.81;5067364;28;20048;-45
2023/03/02 07:28:38;;;;;;;2.67;1.00;;;;;;;5.47;86.46;102074.09;5066947;28;20040;-44
2023/03/02 07:31:08;;;;;;;5.90;0.60;;;;;;;5.45;86.59;102083.72;5066850;28;20072;-44
2023/03/02 07:33:36;;;;;;;3.53;0.82;;;;;;;5.44;86.97;102074.66;5067746;28;20055;-45
2023/03/02 07:36:05;;;;;;;5.35;0.65;;;;;;;5.44;86.76;102080.16;5064819;28;20059;-49
2023/03/02 07:38:32;;;;;;;1.55;0.57;;;;;;;5.46;86.96;102077.94;5065267;28;20075;-48
2023/03/02 07:40:59;;;;;;;2.30;0.52;;;;;;;5.49;86.85;102093.03;5058669;28;20523;-45
2023/03/02 07:43:27;;;;;;;1.48;0.80;;;;;;;5.54;87.08;102087.53;5069255;28;20445;-45
2023/03/02 07:45:54;;;;;;;4.03;0.90;;;;;;;5.58;87.10;102090.56;5070413;28;20566;-49
2023/03/02 07:48:22;;;;;;;5.72;1.60;;;;;;;5.62;86.87;102094.38;5071049;28;20048;-48
2023/03/02 07:50:48;;;;;;;4.72;2.10;;;;;;;5.67;86.91;102088.84;5070013;28;20047;-48
2023/03/02 07:53:15;;;;;;;4.20;0.88;;;;;;;5.70;87.20;102088.31;5070036;28;20512;-49
2023/03/02 07:55:42;;;;;;;5.50;1.50;;;;;;;5.74;87.05;102089.41;5070557;28;20051;-45
2023/03/02 07:58:09;;;;;;;5.03;1.02;;;;;;;5.77;87.30;102095.16;5069527;28;20041;-46
2023/03/02 08:00:35;;;;;;;5.22;2.60;;;;;;;5.79;87.27;102086.63;5082596;28;20508;-45
2023/03/02 08:03:02;;;;;;;8.48;0.90;;;;;;;5.81;87.23;102101.75;5069651;28;20052;-46
2023/03/02 08:05:29;;;;;;;11.00;1.13;;;;;;;5.84;87.39;102100.34;5070097;28;20068;-47
2023/03/02 08:07:58;;;;;;;5.50;1.38;;;;;;;5.89;87.41;102116.84;5069589;28;20052;-45
2023/03/02 08:10:25;;;;;;;10.43;2.00;;;;;;;5.91;87.38;102109.16;5069529;28;20051;-45
2023/03/02 08:12:51;;;;;;;2.95;0.88;;;;;;;5.91;87.35;102107.22;5068213;28;20390;-48
2023/03/02 08:15:18;;;;;;;5.38;1.35;;;;;;;5.91;87.70;102109.16;5057231;28;20040;-45
2023/03/02 08:17:45;;;;;;;4.30;1.08;;;;;;;5.93;87.70;102117.94;5052190;28;20526;-49
2023/03/02 08:20:12;;;;;;;7.93;1.40;;;;;;;5.90;87.85;102115.75;5054229;28;20047;-45
2023/03/02 08:22:39;;;;;;;6.35;0.88;;;;;;;5.87;87.87;102121.81;5061583;28;20072;-44
2023/03/02 08:25:06;;;;;;;5.43;1.05;;;;;;;5.86;88.15;102114.66;5054719;28;20040;-48
2023/03/02 08:27:33;;;;;;;4.85;0.88;;;;;;;5.86;88.27;102120.16;5070172;28;20387;-45
2023/03/02 08:30:00;;;;;;;2.70;0.77;;;;;;;5.86;88.11;102131.16;5059278;28;20045;-48
2023/03/02 08:32:26;;;;;;;3.58;0.95;;;;;;;5.89;88.42;102125.09;5064469;28;20049;-45
2023/03/02 08:34:53;;;;;;;3.65;1.50;;;;;;;5.93;88.42;102131.69;5066313;28;20056;-46
2023/03/02 08:37:20;;;;;;;6.93;1.33;;;;;;;6.00;88.69;102132.22;5060814;28;20041;-46
2023/03/02 08:39:47;;;;;;;4.68;1.23;;;;;;;6.10;88.53;102123.91;5065858;28;20048;-45
2023/03/02 08:42:14;;;;;;;11.35;1.50;;;;;;;6.22;88.58;102129.94;5047840;28;20062;-45
2023/03/02 08:44:40;;;;;;;7.07;1.92;;;;;;;6.30;88.65;102132.06;5046728;28;20428;-45
2023/03/02 08:47:07;;;;;;;5.78;2.67;;;;;;;6.35;88.48;102131.22;5061623;28;20087;-49
2023/03/02 08:49:36;;;;;;;7.60;2.30;;;;;;;6.33;88.48;102128.75;5057564;28;20431;-44
2023/03/02 08:52:04;;;;;;;9.98;2.80;;;;;;;6.29;88.47;102129.59;5065779;28;20063;-45
2023/03/02 08:54:33;;;;;;;6.97;1.80;;;;;;;6.26;88.68;102131.00;5047378;28;20039;-45
2023/03/02 08:57:01;;;;;;;4.30;1.10;;;;;;;6.27;88.72;102137.31;5063891;28;20045;-46
2023/03/02 08:59:28;;;;;;;5.18;1.45;;;;;;;6.23;89.02;102139.81;5065911;28;20037;-45
2023/03/02 09:01:54;;;;;;;4.63;1.30;;;;;;;6.21;89.16;102155.78;5063021;28;20052;-45
2023/03/02 09:04:21;;;;;;;4.72;1.00;;;;;;;6.19;89.25;102165.41;5064480;28;20446;-50
2023/03/02 09:06:48;;;;;;;16.08;4.53;;;;;;;6.17;89.45;102154.66;5057044;28;20049;-44
2023/03/02 09:09:15;;;;;;;8.18;1.95;;;;;;;6.18;89.53;102155.50;5063067;28;20044;-44
2023/03/02 09:11:43;;;;;;;6.78;1.52;;;;;;;6.13;89.83;102165.44;5056522;28;20141;-45
2023/03/02 09:14:10;;;;;;;4.32;1.30;;;;;;;6.09;89.76;102164.31;5064415;28;20090;-45
2023/03/02 09:16:38;;;;;;;2.22;1.00;;;;;;;6.02;89.74;102163.81;5055268;28;20448;-44
2023/03/02 09:19:04;;;;;;;9.68;1.48;;;;;;;6.11;90.24;102164.06;5061518;28;20445;-44
2023/03/02 09:21:31;;;;;;;5.10;1.20;;;;;;;6.20;89.95;102162.34;5068219;28;20055;-43
2023/03/02 09:23:58;;;;;;;4.13;0.73;;;;;;;6.25;89.95;102167.84;5062237;28;20041;-47
2023/03/02 09:26:26;;;;;;;3.10;0.80;;;;;;;6.27;89.78;102165.66;5066850;28;20048;-49
2023/03/02 09:28:53;;;;;;;8.15;2.47;;;;;;;6.26;89.86;102169.50;5059182;28;20059;-47
2023/03/02 09:31:19;;;;;;;2.53;0.77;;;;;;;6.24;90.00;102163.47;5060284;28;20068;-48
2023/03/02 09:33:46;;;;;;;4.28;1.05;;;;;;;6.20;89.87;102178.84;5050251;28;20163;-45
2023/03/02 09:36:22;;;;;;;5.57;0.93;;;;;;;6.22;90.23;102173.94;5066310;28;20056;-50
2023/03/02 09:38:49;;;;;;;5.32;0.63;;;;;;;6.26;90.06;102172.25;5065431;28;20398;-45
2023/03/02 09:41:19;;;;;;;4.28;0.90;;;;;;;6.28;90.08;102169.19;5070980;28;20135;-45
2023/03/02 09:44:10;;;;;;;8.43;0.75;;;;;;;6.29;90.06;102168.94;5066106;28;20482;-52
2023/03/02 09:46:53;;;;;;;2.47;0.80;;;;;;;6.37;90.30;102170.28;5063558;28;20047;-47
2023/03/02 09:49:32;;;;;;;4.05;1.23;;;;;;;6.49;90.27;102166.06;5066743;28;20067;-53
2023/03/02 09:52:10;;;;;;;6.00;0.85;;;;;;;6.65;90.24;102162.13;5067013;28;20041;-45
2023/03/02 09:54:39;;;;;;;6.20;1.05;;;;;;;6.78;89.65;102168.13;5069282;28;20049;-45
2023/03/02 09:57:21;;;;;;;4.10;0.80;;;;;;;6.74;89.41;102157.69;5049559;28;20097;-46
2023/03/02 10:00:11;;;;;;;3.70;1.20;;;;;;;6.62;89.45;102162.69;5068870;28;20520;-48
2023/03/02 10:02:56;;;;;;;3.90;1.48;;;;;;;6.57;89.74;102170.97;5054176;28;20470;-46
2023/03/02 10:05:44;;;;;;;5.18;0.63;;;;;;;6.53;89.89;102166.34;5069323;28;20124;-52
2023/03/02 10:08:19;;;;;;;0.75;0.47;;;;;;;6.57;89.98;102164.66;5067014;28;20048;-46
2023/03/02 10:11:31;;;;;;;2.85;0.65;;;;;;;6.57;89.92;102165.47;5071837;28;20059;-49
2023/03/02 10:14:16;;;;;;;7.50;0.68;;;;;;;6.48;89.88;102166.38;5069498;28;20060;-46
2023/03/02 10:16:50;;;;;;;6.53;0.82;;;;;;;6.40;90.07;102169.72;5069589;28;20494;-45
2023/03/02 10:19:41;;;;;;;4.93;0.80;;;;;;;6.26;90.03;102158.50;5068640;28;20041;-46
2023/03/02 10:22:29;;;;;;;2.05;0.30;;;;;;;6.22;89.93;102168.44;5052920;28;20079;-48
2023/03/02 10:25:08;;;;;;;1.40;0.30;;;;;;;6.20;90.05;102170.59;5059199;28;20621;-48
2023/03/02 10:27:41;;;;;;;2.17;0.40;;;;;;;6.22;90.06;102167.59;5064698;28;20125;-44
2023/03/02 10:30:34;;;;;;;8.68;0.75;;;;;;;6.22;90.11;102157.44;5066585;28;20044;-46
2023/03/02 10:33:17;;;;;;;3.67;0.40;;;;;;;6.22;89.78;102162.94;5070898;28;20059;-46
2023/03/02 10:35:50;;;;;;;2.50;0.40;;;;;;;6.21;89.88;102157.69;5063290;28;20039;-45
2023/03/02 10:38:20;;;;;;;5.80;2.15;;;;;;;6.23;89.82;102164.56;5061342;28;20101;-46
2023/03/02 10:40:58;;;;;;;2.20;0.70;;;;;;;6.27;89.88;102159.31;5064503;28;20040;-47
2023/03/02 10:43:32;;;;;;;3.75;0.80;;;;;;;6.30;89.93;102165.06;5070369;28;20053;-46
2023/03/02 10:46:04;;;;;;;4.03;0.85;;;;;;;6.31;89.78;102165.88;5064613;28;20123;-53
2023/03/02 10:48:30;;;;;;;2.42;0.80;;;;;;;6.32;89.71;102168.38;5071977;28;20395;-50
2023/03/02 10:50:59;;;;;;;18.27;2.58;;;;;;;6.37;90.00;102171.09;5056316;28;20103;-47
2023/03/02 10:53:26;;;;;;;2.63;1.42;;;;;;;6.38;89.88;102167.22;5046810;28;20048;-45
2023/03/02 10:55:52;;;;;;;3.40;0.65;;;;;;;6.44;89.80;102176.28;5065292;28;20040;-51
2023/03/02 10:58:28;;;;;;;5.78;0.80;;;;;;;6.47;89.56;102171.03;5069284;28;20374;-44
2023/03/02 11:00:59;;;;;;;3.72;0.70;;;;;;;6.53;89.91;102180.09;5066069;28;20052;-46
2023/03/02 11:03:27;;;;;;;2.38;0.63;;;;;;;6.60;89.80;102172.34;5065999;28;20044;-45
2023/03/02 11:05:55;;;;;;;2.28;0.30;;;;;;;6.68;89.60;102172.56;5065946;28;20402;-44
2023/03/02 11:08:26;;;;;;;3.95;0.70;;;;;;;6.87;89.54;102177.41;5066481;28;20478;-44
2023/03/02 11:10:58;;;;;;;1.27;0.47;;;;;;;7.02;89.17;102178.13;5067796;28;20087;-47
2023/03/02 11:13:36;;;;;;;0.60;0.30;;;;;;;7.26;88.83;102164.44;5047693;28;20040;-44
2023/03/02 11:16:16;;;;;;;2.08;0.35;;;;;;;7.54;88.46;102174.66;5066971;28;20052;-44
2023/03/02 11:18:51;;;;;;;2.75;0.60;;;;;;;7.70;87.95;102167.06;5059179;28;20032;-47
2023/03/02 11:21:24;;;;;;;4.82;0.73;;;;;;;7.81;87.79;102168.63;5067248;28;20049;-49
2023/03/02 11:24:02;;;;;;;2.47;0.57;;;;;;;7.85;87.73;102167.72;5065635;28;20049;-51
2023/03/02 11:26:38;;;;;;;8.55;3.58;;;;;;;7.81;87.63;102163.91;5064447;28;20375;-45
2023/03/02 11:29:16;;;;;;;6.20;0.85;;;;;;;7.75;87.84;102170.59;5065405;28;20045;-49
2023/03/02 11:31:50;;;;;;;3.70;0.50;;;;;;;7.67;87.89;102174.00;5070957;28;20433;-44
2023/03/02 11:34:36;;;;;;;4.00;0.50;;;;;;;7.63;88.12;102172.91;5063639;28;20056;-44
2023/03/02 11:37:02;;;;;;;9.63;2.97;;;;;;;7.65;88.28;102175.41;5066309;28;20040;-46
2023/03/02 11:40:15;;;;;;;6.88;0.80;;;;;;;7.71;88.12;102177.78;5068085;28;20554;-47
2023/03/02 11:42:43;;;;;;;3.38;0.70;;;;;;;7.72;88.06;102178.63;5071474;28;20500;-44
2023/03/02 11:45:13;;;;;;;2.00;0.40;;;;;;;7.72;88.22;102173.94;5065259;28;20127;-45
2023/03/02 11:47:49;;;;;;;2.55;0.95;;;;;;;7.70;88.26;102187.19;5061011;28;22320;-46